Nearby METAR Reports

 

K27K - Georgetown, Kentucky, USA
Distance from station: NE 1mi, 3km
Updated: Thu, 25-Apr-2019 7:35pm EDT
Overcast
Overcast
 Wind from SSE
Wind: SSE 8 mph , 13 km/h
Temperature: 70°F , 21°C
Dew Point: 57°F , 14°C
Humidity: 64%
Barometer: 29.67 inHg , 1004.7 hPa
Clouds: Overcast
Visibility: 10 miles , 16 km
Cloud details: Partly cloudy 5000 ft
Mostly cloudy 6500 ft
Overcast 9000 ft
2019/04/25 23:35 K27K 252335Z AUTO 16007KT 10SM SCT050 BKN065 OVC090 21/14 A2967 RMK AO1
KLEX - Lexington, Kentucky, USA
Distance from station: SE 25mi, 38km
Updated: Thu, 25-Apr-2019 6:54pm EDT
Overcast
Overcast
 Wind from S
Wind: S 8 mph , 13 km/h
Temperature: 72°F , 22°C
Dew Point: 57°F , 14°C
Humidity: 61%
Barometer: 29.67 inHg , 1004.7 hPa
Clouds: Overcast
Visibility: 10 miles , 16 km
Cloud details: Few Clouds 4000 ft
Mostly cloudy 7000 ft
Overcast 10000 ft
2019/04/25 22:54 KLEX 252254Z 19007KT 10SM FEW040 BKN070 OVC100 22/14 A2967 RMK AO2 SLP042 T02220144
 
KFFT - Frankfort, Kentucky, USA
Distance from station: WNW 24mi, 38km
Updated: Thu, 25-Apr-2019 6:53pm EDT
Mostly cloudy
Mostly cloudy
 Wind from S
Wind: S 14 mph , 22 km/h, Gust: 25 mph , 41 km/h
Temperature: 73°F , 23°C
Dew Point: 57°F , 14°C
Humidity: 57%
Barometer: 29.65 inHg , 1004.1 hPa
Clouds: Mostly cloudy
Visibility: 10 miles , 16 km
Cloud details: Mostly cloudy 11000 ft
2019/04/25 22:53 KFFT 252253Z AUTO 18012G22KT 10SM BKN110 23/14 A2965 RMK AO2 SLP034 T02330139
KIOB - Mount Sterling, Kentucky, USA
Distance from station: E 28mi, 46km
Updated: Thu, 25-Apr-2019 7:35pm EDT
Mostly cloudy
Mostly cloudy
 Wind from S
Wind: S 8 mph , 13 km/h
Temperature: 72°F , 22°C
Dew Point: 57°F , 14°C
Humidity: 61%
Barometer: 29.71 inHg , 1006.1 hPa
Clouds: Mostly cloudy
Visibility: 10 miles , 16 km
Cloud details: Partly cloudy 5000 ft
Mostly cloudy 6000 ft
Mostly cloudy 9000 ft
2019/04/25 23:35 KIOB 252335Z AUTO 19007KT 10SM SCT050 BKN060 BKN090 22/14 A2971 RMK AO2
 
KDVK - Danville, Kentucky, USA
Distance from station: SSW 35mi, 56km
Updated: Thu, 25-Apr-2019 7:35pm EDT
Mostly cloudy
Mostly cloudy
 Wind from SSW
Wind: SSW 12 mph , 19 km/h, Gust: 16 mph , 26 km/h
Temperature: 70°F , 21°C
Dew Point: 54°F , 12°C
Humidity: 57%
Barometer: 29.70 inHg , 1005.8 hPa
Clouds: Mostly cloudy
Visibility: 10 miles , 16 km
Cloud details: Partly cloudy 4800 ft
Partly cloudy 6000 ft
Mostly cloudy 7000 ft
2019/04/25 23:35 KDVK 252335Z AUTO 21010G14KT 10SM SCT048 SCT060 BKN070 21/12 A2970 RMK AO2
K6I2 - Springfield, Kentucky, USA
Distance from station: SW 49mi, 80km
Updated: Thu, 25-Apr-2019 7:25pm EDT
Mostly cloudy
Mostly cloudy
 Wind from S
Wind: S 18 mph , 30 km/h, Gust: 26 mph , 43 km/h
Temperature: 72°F , 22°C
Dew Point: 57°F , 14°C
Humidity: 61%
Barometer: 29.68 inHg , 1005.1 hPa
Clouds: Mostly cloudy
Visibility: 10 miles , 16 km
Cloud details: Few Clouds 5000 ft
Mostly cloudy 9000 ft
Mostly cloudy 11000 ft
2019/04/25 23:25 K6I2 252325Z AUTO 18016G23KT 10SM FEW050 BKN090 BKN110 22/14 A2968 RMK AO2
 
KSYM - Morehead, Kentucky, USA
Distance from station: ENE 51mi, 83km
Updated: Thu, 25-Apr-2019 7:40pm EDT
Clear
Clear
 Wind from S
Wind: S 8 mph , 13 km/h
Temperature: 73°F , 23°C
Dew Point: 54°F , 12°C
Humidity: 50%
Barometer: 29.71 inHg , 1006.1 hPa
Clouds: Clear
Visibility: 10 miles , 16 km
2019/04/25 23:40 KSYM 252340Z AUTO 18007KT 10SM CLR 23/12 A2971 RMK AO2
KFGX - Flemingsburg, Kentucky, USA
Distance from station: NE 54mi, 87km
Updated: Thu, 25-Apr-2019 7:35pm EDT
Clear
Clear
 Wind from SSE
Wind: SSE 7 mph , 11 km/h
Temperature: 70°F , 21°C
Dew Point: 59°F , 15°C
Humidity: 69%
Barometer: 29.69 inHg , 1005.4 hPa
Clouds: Clear
Visibility: 10 miles , 16 km
2019/04/25 23:35 KFGX 252335Z AUTO 16006KT 10SM CLR 21/15 A2969 RMK AO2 T02070146
 
KLOU - Louisville/Bowmn, Kentucky, USA
Distance from station: W 64mi, 104km
Updated: Thu, 25-Apr-2019 7:21pm EDT
Rain, Mist, Overcast
Rain, Mist, Overcast
 Wind from SSW
Wind: SSW 7 mph , 11 km/h
Temperature: 63°F , 17°C
Dew Point: 61°F , 16°C
Humidity: 94%
Barometer: 29.66 inHg , 1004.4 hPa
Summary: Rain, Mist
Clouds: Overcast
Visibility: 4 miles , 6 km
Cloud details: Mostly cloudy 3200 ft
Mostly cloudy 5000 ft
Overcast 7500 ft
2019/04/25 23:21 KLOU 252321Z 20006KT 4SM RA BR BKN032 BKN050 OVC075 17/16 A2966 RMK AO2 PK WND 24044/2255 WSHFT 2240 P0051 T01720161
KSDF - Louisville, Kentucky, USA
Distance from station: W 68mi, 109km
Updated: Thu, 25-Apr-2019 7:13pm EDT
Light rain, Overcast
Light rain, Overcast
 Wind from S
Wind: S 8 mph , 13 km/h
Temperature: 66°F , 19°C
Dew Point: 61°F , 16°C
Humidity: 83%
Barometer: 29.66 inHg , 1004.4 hPa
Summary: Light rain
Clouds: Overcast
Visibility: 5 miles , 8 km
Cloud details: Partly cloudy 2500 ft
Mostly cloudy 7000 ft
Overcast 9000 ft
2019/04/25 23:13 KSDF 252313Z 19007KT 5SM -RA SCT025 BKN070 OVC090 19/16 A2966 RMK AO2 LTG DSNT SE TSE00B02E13 TS MOV NE P0007 T01890161
 
KSME - Somerset, Kentucky, USA
Distance from station: S 69mi, 111km
Updated: Thu, 25-Apr-2019 7:35pm EDT
Mostly cloudy
Mostly cloudy
 Wind from S
Wind: S 7 mph , 11 km/h
Temperature: 70°F , 21°C
Dew Point: 55°F , 13°C
Humidity: 60%
Barometer: 29.73 inHg , 1006.8 hPa
Clouds: Mostly cloudy
Visibility: 10 miles , 16 km
Cloud details: Partly cloudy 10000 ft
Mostly cloudy 12000 ft
2019/04/25 23:35 KSME 252335Z AUTO 18006KT 10SM SCT100 BKN120 21/13 A2973 RMK AO2
KCVG - Covington, Kentucky, USA
Distance from station: N 70mi, 113km
Updated: Thu, 25-Apr-2019 6:52pm EDT
Overcast
Overcast
 Wind from ESE
Wind: ESE 7 mph , 11 km/h
Temperature: 70°F , 21°C
Dew Point: 63°F , 17°C
Humidity: 78%
Barometer: 29.65 inHg , 1004.1 hPa
Clouds: Overcast
Visibility: 10 miles , 16 km
Cloud details: Few Clouds 3000 ft
Partly cloudy 15000 ft
Partly cloudy 19000 ft
Overcast 25000 ft
2019/04/25 22:52 KCVG 252252Z 11006KT 10SM FEW030 SCT150 SCT190 OVC250 21/17 A2965 RMK AO2 SLP033 CB DSNT SW-W TCU DSNT E T02110167
 
KLOZ - London, Kentucky, USA
Distance from station: SSE 70mi, 113km
Updated: Thu, 25-Apr-2019 6:53pm EDT
Clear
Clear
 Wind from S
Wind: S 8 mph , 13 km/h, Gust: 18 mph , 30 km/h
Temperature: 72°F , 22°C
Dew Point: 57°F , 14°C
Humidity: 61%
Barometer: 29.74 inHg , 1007.1 hPa
Clouds: Clear
Visibility: 10 miles , 16 km
2019/04/25 22:53 KLOZ 252253Z AUTO 17007G16KT 10SM CLR 22/14 A2974 RMK AO2 SLP062 T02170144
KJKL - Noctor/Jackson, Kentucky, USA
Distance from station: ESE 72mi, 115km
Updated: Thu, 25-Apr-2019 6:53pm EDT
Clear
Clear
 Wind from S
Wind: S 8 mph , 13 km/h
Temperature: 72°F , 22°C
Dew Point: 54°F , 12°C
Humidity: 53%
Barometer: 29.75 inHg , 1007.5 hPa
Clouds: Clear
Visibility: 10 miles , 16 km
2019/04/25 22:53 KJKL 252253Z AUTO 19007KT 150V230 10SM CLR 22/12 A2975 RMK AO2 SLP063 T02220117
 
KIMS - Madison, Indiana, USA
Distance from station: NW 72mi, 116km
Updated: Thu, 25-Apr-2019 7:35pm EDT
Overcast
Overcast
 Wind from SSW
Wind: SSW 7 mph , 11 km/h
Temperature: 61°F , 16°C
Dew Point: 61°F , 16°C
Humidity: 100%
Barometer: 29.68 inHg , 1005.1 hPa
Clouds: Overcast
Visibility: 1 mile , 2 km
Cloud details: Mostly cloudy 900 ft
Overcast 2000 ft
2019/04/25 23:35 KIMS 252335Z AUTO 21006KT 1SM BKN009 OVC020 16/16 A2968 RMK AO1
KLUK - Cincinnat/Lunken, Ohio, USA
Distance from station: N 73mi, 118km
Updated: Thu, 25-Apr-2019 6:53pm EDT
Clear
Clear
 Wind from NE
Wind: NE 3 mph , 6 km/h
Temperature: 70°F , 21°C
Dew Point: 64°F , 18°C
Humidity: 83%
Barometer: 29.65 inHg , 1004.1 hPa
Clouds: Clear
Visibility: 10 miles , 16 km
2019/04/25 22:53 KLUK 252253Z 05003KT 10SM CLR 21/18 A2965 RMK AO2 SLP039 T02110183
 
KI69 - Batavia, Ohio, USA
Distance from station: NNE 74mi, 119km
Updated: Thu, 25-Apr-2019 7:35pm EDT
Clear
Clear
 Wind from SSE
Wind: SSE 3 mph , 6 km/h
Temperature: 68°F , 20°C
Dew Point: 61°F , 16°C
Humidity: 78%
Barometer: 29.66 inHg , 1004.4 hPa
Clouds: Clear
Visibility: 10 miles , 16 km
2019/04/25 23:35 KI69 252335Z AUTO 16003KT 10SM CLR 20/16 A2966 RMK AO2 T02030160